Correia Pinto, Brazil
Current Conditions -  °F | °C
As of 8:00 PM on Friday 28 Nov 2014 (Local Time) from SBCM Reporting Station
Broken Clouds Broken Clouds  
Wind Chill: 73°   Ceiling: 2500
Heat Index: 73°   Visibility: 6mi
Dew Point: 66°   Wind: 10mph
Humidity: 78%   Direction: 100°E
Pressure: 30.03"   Gusts: NA
Location:  27.58°S, 50.36°W
Report Text: SBCM 282200Z 10009KT 9999 FEW015 BKN025 23/19 Q1017
Loading
Personal Weather Stations






























Interactive Weather Map New forecast layout! Learn more

10-Day Weather Forecast

Advertisements
Track Severe Weather on mobile